sensor_id;sensor_type;location;lat;lon;timestamp;pressure;altitude;pressure_sealevel;temperature;humidity
21779;BME280;11050;52.222;20.916;2024-03-02T00:00:51;99865.19;;;8.69;100.00
21779;BME280;11050;52.222;20.916;2024-03-02T00:03:18;99861.09;;;8.71;100.00
21779;BME280;11050;52.222;20.916;2024-03-02T00:05:49;99856.41;;;8.67;100.00
21779;BME280;11050;52.222;20.916;2024-03-02T00:08:23;99850.09;;;8.66;100.00
21779;BME280;11050;52.222;20.916;2024-03-02T00:10:57;99846.19;;;8.62;100.00
21779;BME280;11050;52.222;20.916;2024-03-02T00:13:24;99841.28;;;8.64;100.00
21779;BME280;11050;52.222;20.916;2024-03-02T00:15:55;99853.34;;;8.63;100.00
21779;BME280;11050;52.222;20.916;2024-03-02T00:18:30;99849.25;;;8.66;100.00
21779;BME280;11050;52.222;20.916;2024-03-02T00:20:57;99849.50;;;8.64;100.00
21779;BME280;11050;52.222;20.916;2024-03-02T00:23:26;99848.94;;;8.62;100.00
21779;BME280;11050;52.222;20.916;2024-03-02T00:25:54;99844.56;;;8.61;100.00
21779;BME280;11050;52.222;20.916;2024-03-02T00:28:29;99845.38;;;8.62;100.00
21779;BME280;11050;52.222;20.916;2024-03-02T00:33:23;99839.06;;;8.61;100.00
21779;BME280;11050;52.222;20.916;2024-03-02T00:35:50;99844.56;;;8.61;100.00
21779;BME280;11050;52.222;20.916;2024-03-02T00:38:16;99841.56;;;8.63;100.00
21779;BME280;11050;52.222;20.916;2024-03-02T00:40:43;99830.53;;;8.57;100.00
21779;BME280;11050;52.222;20.916;2024-03-02T00:45:59;99841.81;;;8.61;100.00
21779;BME280;11050;52.222;20.916;2024-03-02T00:48:25;99851.19;;;8.65;100.00
21779;BME280;11050;52.222;20.916;2024-03-02T00:50:52;99847.34;;;8.66;100.00
21779;BME280;11050;52.222;20.916;2024-03-02T00:53:23;99853.16;;;8.70;100.00
21779;BME280;11050;52.222;20.916;2024-03-02T00:55:52;99846.34;;;8.72;100.00
21779;BME280;11050;52.222;20.916;2024-03-02T00:58:18;99851.00;;;8.72;100.00
21779;BME280;11050;52.222;20.916;2024-03-02T01:00:44;99844.13;;;8.69;100.00
21779;BME280;11050;52.222;20.916;2024-03-02T01:03:09;99855.63;;;8.71;100.00
21779;BME280;11050;52.222;20.916;2024-03-02T01:05:36;99847.34;;;8.66;100.00
21779;BME280;11050;52.222;20.916;2024-03-02T01:08:02;99845.72;;;8.65;100.00
21779;BME280;11050;52.222;20.916;2024-03-02T01:10:28;99835.22;;;8.62;100.00
21779;BME280;11050;52.222;20.916;2024-03-02T01:12:54;99834.59;;;8.55;100.00
21779;BME280;11050;52.222;20.916;2024-03-02T01:15:20;99836.19;;;8.51;100.00
21779;BME280;11050;52.222;20.916;2024-03-02T01:17:46;99839.09;;;8.44;100.00
21779;BME280;11050;52.222;20.916;2024-03-02T01:20:12;99837.09;;;8.40;100.00
21779;BME280;11050;52.222;20.916;2024-03-02T01:22:37;99838.44;;;8.37;100.00
21779;BME280;11050;52.222;20.916;2024-03-02T01:25:04;99843.00;;;8.32;100.00
21779;BME280;11050;52.222;20.916;2024-03-02T01:27:30;99840.78;;;8.29;100.00
21779;BME280;11050;52.222;20.916;2024-03-02T01:29:55;99838.53;;;8.26;100.00
21779;BME280;11050;52.222;20.916;2024-03-02T01:32:21;99834.63;;;8.22;100.00
21779;BME280;11050;52.222;20.916;2024-03-02T01:34:47;99840.56;;;8.19;100.00
21779;BME280;11050;52.222;20.916;2024-03-02T01:37:13;99832.88;;;8.16;100.00
21779;BME280;11050;52.222;20.916;2024-03-02T01:39:39;99828.13;;;8.11;100.00
21779;BME280;11050;52.222;20.916;2024-03-02T01:42:05;99822.34;;;8.08;100.00
21779;BME280;11050;52.222;20.916;2024-03-02T01:44:31;99822.34;;;8.08;100.00
21779;BME280;11050;52.222;20.916;2024-03-02T01:46:57;99815.72;;;8.04;100.00
21779;BME280;11050;52.222;20.916;2024-03-02T01:49:22;99810.75;;;8.01;100.00
21779;BME280;11050;52.222;20.916;2024-03-02T01:51:48;99821.09;;;7.99;100.00
21779;BME280;11050;52.222;20.916;2024-03-02T01:54:14;99815.88;;;7.97;100.00
21779;BME280;11050;52.222;20.916;2024-03-02T01:56:40;99811.22;;;7.98;100.00
21779;BME280;11050;52.222;20.916;2024-03-02T01:59:06;99814.53;;;8.00;100.00
21779;BME280;11050;52.222;20.916;2024-03-02T02:01:32;99814.78;;;7.98;100.00
21779;BME280;11050;52.222;20.916;2024-03-02T02:03:58;99812.31;;;7.97;100.00
21779;BME280;11050;52.222;20.916;2024-03-02T02:06:24;99806.84;;;7.97;100.00
21779;BME280;11050;52.222;20.916;2024-03-02T02:08:50;99804.78;;;7.87;100.00
21779;BME280;11050;52.222;20.916;2024-03-02T02:11:16;99811.47;;;7.96;100.00
21779;BME280;11050;52.222;20.916;2024-03-02T02:13:42;99818.84;;;7.96;100.00
21779;BME280;11050;52.222;20.916;2024-03-02T02:16:08;99807.91;;;7.96;100.00
21779;BME280;11050;52.222;20.916;2024-03-02T02:18:35;99810.63;;;7.96;100.00
21779;BME280;11050;52.222;20.916;2024-03-02T02:21:02;99808.16;;;7.94;100.00
21779;BME280;11050;52.222;20.916;2024-03-02T02:23:28;99806.53;;;7.93;100.00
21779;BME280;11050;52.222;20.916;2024-03-02T02:25:53;99807.34;;;7.94;100.00
21779;BME280;11050;52.222;20.916;2024-03-02T02:28:20;99795.84;;;7.92;100.00
21779;BME280;11050;52.222;20.916;2024-03-02T02:30:46;99802.09;;;7.92;100.00
21779;BME280;11050;52.222;20.916;2024-03-02T02:33:12;99804.03;;;7.92;100.00
21779;BME280;11050;52.222;20.916;2024-03-02T02:35:37;99804.50;;;7.89;100.00
21779;BME280;11050;52.222;20.916;2024-03-02T02:38:04;99798.22;;;7.88;100.00
21779;BME280;11050;52.222;20.916;2024-03-02T02:40:30;99795.16;;;7.85;100.00
21779;BME280;11050;52.222;20.916;2024-03-02T02:42:57;99791.03;;;7.82;100.00
21779;BME280;11050;52.222;20.916;2024-03-02T02:45:22;99792.06;;;7.81;100.00
21779;BME280;11050;52.222;20.916;2024-03-02T02:47:48;99785.44;;;7.77;100.00
21779;BME280;11050;52.222;20.916;2024-03-02T02:50:14;99786.53;;;7.76;100.00
21779;BME280;11050;52.222;20.916;2024-03-02T02:52:41;99789.84;;;7.78;100.00
21779;BME280;11050;52.222;20.916;2024-03-02T02:55:12;99786.53;;;7.76;100.00
21779;BME280;11050;52.222;20.916;2024-03-02T02:57:41;99781.81;;;7.72;100.00
21779;BME280;11050;52.222;20.916;2024-03-02T03:00:13;99784.88;;;7.75;100.00
21779;BME280;11050;52.222;20.916;2024-03-02T03:02:45;99787.84;;;7.74;100.00
21779;BME280;11050;52.222;20.916;2024-03-02T03:05:12;99781.81;;;7.72;100.00
21779;BME280;11050;52.222;20.916;2024-03-02T03:07:40;99781.22;;;7.69;100.00
21779;BME280;11050;52.222;20.916;2024-03-02T03:10:07;99770.19;;;7.64;100.00
21779;BME280;11050;52.222;20.916;2024-03-02T03:12:34;99782.22;;;7.63;100.00
21779;BME280;11050;52.222;20.916;2024-03-02T03:15:01;99781.06;;;7.59;100.00
21779;BME280;11050;52.222;20.916;2024-03-02T03:17:28;99775.59;;;7.59;100.00
21779;BME280;11050;52.222;20.916;2024-03-02T03:19:54;99770.03;;;7.54;100.00
21779;BME280;11050;52.222;20.916;2024-03-02T03:22:20;99784.19;;;7.51;100.00
21779;BME280;11050;52.222;20.916;2024-03-02T03:24:46;99766.03;;;7.45;100.00
21779;BME280;11050;52.222;20.916;2024-03-02T03:27:12;99775.91;;;7.46;100.00
21779;BME280;11050;52.222;20.916;2024-03-02T03:29:37;99781.84;;;7.43;100.00
21779;BME280;11050;52.222;20.916;2024-03-02T03:32:04;99772.25;;;7.41;100.00
21779;BME280;11050;52.222;20.916;2024-03-02T03:34:33;99781.53;;;7.40;100.00
21779;BME280;11050;52.222;20.916;2024-03-02T03:36:59;99780.09;;;7.37;100.00
21779;BME280;11050;52.222;20.916;2024-03-02T03:39:24;99782.03;;;7.37;100.00
21779;BME280;11050;52.222;20.916;2024-03-02T03:41:50;99785.34;;;7.39;100.00
21779;BME280;11050;52.222;20.916;2024-03-02T03:44:16;99779.63;;;7.40;100.00
21779;BME280;11050;52.222;20.916;2024-03-02T03:46:42;99783.19;;;7.41;100.00
21779;BME280;11050;52.222;20.916;2024-03-02T03:49:08;99776.13;;;7.45;100.00
21779;BME280;11050;52.222;20.916;2024-03-02T03:51:34;99772.00;;;7.42;100.00
21779;BME280;11050;52.222;20.916;2024-03-02T03:53:59;99764.41;;;7.44;100.00
21779;BME280;11050;52.222;20.916;2024-03-02T03:56:25;99763.56;;;7.44;100.00
21779;BME280;11050;52.222;20.916;2024-03-02T03:58:51;99765.97;;;7.40;100.00
21779;BME280;11050;52.222;20.916;2024-03-02T04:01:16;99777.47;;;7.42;100.00
21779;BME280;11050;52.222;20.916;2024-03-02T04:03:42;99778.53;;;7.41;100.00
21779;BME280;11050;52.222;20.916;2024-03-02T04:06:08;99774.88;;;7.36;100.00
21779;BME280;11050;52.222;20.916;2024-03-02T04:08:33;99774.06;;;7.35;100.00
21779;BME280;11050;52.222;20.916;2024-03-02T04:10:59;99773.25;;;7.35;100.00
21779;BME280;11050;52.222;20.916;2024-03-02T04:13:25;99776.31;;;7.38;100.00
21779;BME280;11050;52.222;20.916;2024-03-02T04:15:51;99784.50;;;7.38;100.00
21779;BME280;11050;52.222;20.916;2024-03-02T04:18:16;99782.94;;;7.42;100.00
21779;BME280;11050;52.222;20.916;2024-03-02T04:20:42;99789.81;;;7.45;100.00
21779;BME280;11050;52.222;20.916;2024-03-02T04:23:07;99784.13;;;7.46;100.00
21779;BME280;11050;52.222;20.916;2024-03-02T04:25:33;99782.53;;;7.50;100.00
21779;BME280;11050;52.222;20.916;2024-03-02T04:27:59;99783.59;;;7.49;100.00
21779;BME280;11050;52.222;20.916;2024-03-02T04:30:25;99798.13;;;7.50;100.00
21779;BME280;11050;52.222;20.916;2024-03-02T04:32:51;99786.34;;;7.49;100.00
21779;BME280;11050;52.222;20.916;2024-03-02T04:35:16;99771.50;;;7.45;100.00
21779;BME280;11050;52.222;20.916;2024-03-02T04:37:42;99780.22;;;7.42;100.00
21779;BME280;11050;52.222;20.916;2024-03-02T04:40:08;99781.78;;;7.38;100.00
21779;BME280;11050;52.222;20.916;2024-03-02T04:42:35;99777.38;;;7.37;100.00
21779;BME280;11050;52.222;20.916;2024-03-02T04:45:01;99776.56;;;7.37;100.00
21779;BME280;11050;52.222;20.916;2024-03-02T04:47:27;99773.13;;;7.30;100.00
21779;BME280;11050;52.222;20.916;2024-03-02T04:49:53;99780.75;;;7.28;100.00
21779;BME280;11050;52.222;20.916;2024-03-02T04:52:19;99784.22;;;7.23;100.00
21779;BME280;11050;52.222;20.916;2024-03-02T04:54:44;99775.44;;;7.21;100.00
21779;BME280;11050;52.222;20.916;2024-03-02T04:57:28;99777.09;;;7.22;100.00
21779;BME280;11050;52.222;20.916;2024-03-02T04:59:54;99772.97;;;7.20;100.00
21779;BME280;11050;52.222;20.916;2024-03-02T05:02:20;99778.75;;;7.23;100.00
21779;BME280;11050;52.222;20.916;2024-03-02T05:04:46;99787.22;;;7.22;100.00
21779;BME280;11050;52.222;20.916;2024-03-02T05:07:14;99780.31;;;7.19;100.00
21779;BME280;11050;52.222;20.916;2024-03-02T05:09:40;99791.50;;;7.18;100.00
21779;BME280;11050;52.222;20.916;2024-03-02T05:12:05;99781.97;;;7.20;100.00
21779;BME280;11050;52.222;20.916;2024-03-02T05:14:34;99796.22;;;7.22;100.00
21779;BME280;11050;52.222;20.916;2024-03-02T05:17:00;99800.03;;;7.21;100.00
21779;BME280;11050;52.222;20.916;2024-03-02T05:19:25;99792.91;;;7.20;100.00
21779;BME280;11050;52.222;20.916;2024-03-02T05:21:51;99800.03;;;7.21;100.00
21779;BME280;11050;52.222;20.916;2024-03-02T05:24:17;99803.34;;;7.23;100.00
21779;BME280;11050;52.222;20.916;2024-03-02T05:26:42;99809.41;;;7.25;100.00
21779;BME280;11050;52.222;20.916;2024-03-02T05:29:09;99802.28;;;7.24;100.00
21779;BME280;11050;52.222;20.916;2024-03-02T05:31:34;99812.16;;;7.25;100.00
21779;BME280;11050;52.222;20.916;2024-03-02T05:34:00;99818.44;;;7.26;100.00
21779;BME280;11050;52.222;20.916;2024-03-02T05:36:26;99811.31;;;7.25;100.00
21779;BME280;11050;52.222;20.916;2024-03-02T05:38:53;99816.53;;;7.26;100.00
21779;BME280;11050;52.222;20.916;2024-03-02T05:41:18;99818.19;;;7.27;100.00
21779;BME280;11050;52.222;20.916;2024-03-02T05:43:44;99819.84;;;7.28;100.00
21779;BME280;11050;52.222;20.916;2024-03-02T05:46:10;99818.28;;;7.32;100.00
21779;BME280;11050;52.222;20.916;2024-03-02T05:48:35;99824.34;;;7.34;100.00
21779;BME280;11050;52.222;20.916;2024-03-02T05:51:01;99818.03;;;7.34;100.00
21779;BME280;11050;52.222;20.916;2024-03-02T05:53:27;99830.97;;;7.38;100.00
21779;BME280;11050;52.222;20.916;2024-03-02T05:55:52;99829.66;;;7.41;100.00
21779;BME280;11050;52.222;20.916;2024-03-02T05:58:22;99824.19;;;7.41;100.00
21779;BME280;11050;52.222;20.916;2024-03-02T06:01:13;99831.66;;;7.45;100.00
21779;BME280;11050;52.222;20.916;2024-03-02T06:03:39;99829.50;;;7.47;100.00
21779;BME280;11050;52.222;20.916;2024-03-02T06:06:05;99837.44;;;7.49;100.00
21779;BME280;11050;52.222;20.916;2024-03-02T06:08:31;99841.34;;;7.53;100.00
21779;BME280;11050;52.222;20.916;2024-03-02T06:10:56;99837.31;;;7.55;100.00
21779;BME280;11050;52.222;20.916;2024-03-02T06:13:22;99832.75;;;7.61;100.00
21779;BME280;11050;52.222;20.916;2024-03-02T06:15:48;99835.84;;;7.64;100.00
21779;BME280;11050;52.222;20.916;2024-03-02T06:18:14;99843.53;;;7.67;100.00
21779;BME280;11050;52.222;20.916;2024-03-02T06:20:40;99828.53;;;7.70;100.00
21779;BME280;11050;52.222;20.916;2024-03-02T06:23:05;99837.34;;;7.72;100.00
21779;BME280;11050;52.222;20.916;2024-03-02T06:25:31;99848.34;;;7.77;100.00
21779;BME280;11050;52.222;20.916;2024-03-02T06:27:57;99847.88;;;7.80;100.00
21779;BME280;11050;52.222;20.916;2024-03-02T06:30:23;99851.53;;;7.86;100.00
21779;BME280;11050;52.222;20.916;2024-03-02T06:32:49;99848.88;;;7.91;100.00
21779;BME280;11050;52.222;20.916;2024-03-02T06:35:15;99846.72;;;7.93;100.00
21779;BME280;11050;52.222;20.916;2024-03-02T06:37:40;99855.84;;;7.98;100.00
21779;BME280;11050;52.222;20.916;2024-03-02T06:40:07;99860.31;;;8.04;100.00
21779;BME280;11050;52.222;20.916;2024-03-02T06:42:34;99851.59;;;8.07;100.00
21779;BME280;11050;52.222;20.916;2024-03-02T06:45:01;99861.31;;;8.15;100.00
21779;BME280;11050;52.222;20.916;2024-03-02T06:47:27;99863.31;;;8.19;100.00
21779;BME280;11050;52.222;20.916;2024-03-02T06:49:52;99866.47;;;8.28;100.00
21779;BME280;11050;52.222;20.916;2024-03-02T06:52:18;99855.03;;;8.31;100.00
21779;BME280;11050;52.222;20.916;2024-03-02T06:54:46;99854.53;;;8.34;100.00
21779;BME280;11050;52.222;20.916;2024-03-02T06:57:12;99866.13;;;8.41;100.00
21779;BME280;11050;52.222;20.916;2024-03-02T06:59:37;99864.88;;;8.48;100.00
21779;BME280;11050;52.222;20.916;2024-03-02T07:02:03;99869.09;;;8.56;100.00
21779;BME280;11050;52.222;20.916;2024-03-02T07:04:29;99867.28;;;8.62;100.00
21779;BME280;11050;52.222;20.916;2024-03-02T07:06:55;99864.09;;;8.70;100.00
21779;BME280;11050;52.222;20.916;2024-03-02T07:09:20;99855.97;;;8.75;100.00
21779;BME280;11050;52.222;20.916;2024-03-02T07:11:49;99859.84;;;8.79;100.00
21779;BME280;11050;52.222;20.916;2024-03-02T07:14:15;99859.94;;;8.84;100.00
21779;BME280;11050;52.222;20.916;2024-03-02T07:16:40;99865.47;;;8.89;100.00
21779;BME280;11050;52.222;20.916;2024-03-02T07:19:09;99867.47;;;8.93;100.00
21779;BME280;11050;52.222;20.916;2024-03-02T07:21:34;99864.19;;;8.96;100.00
21779;BME280;11050;52.222;20.916;2024-03-02T07:24:00;99876.00;;;8.97;100.00
21779;BME280;11050;52.222;20.916;2024-03-02T07:26:30;99875.47;;;9.00;100.00
21779;BME280;11050;52.222;20.916;2024-03-02T07:28:57;99877.16;;;9.01;100.00
21779;BME280;11050;52.222;20.916;2024-03-02T07:31:23;99867.25;;;9.00;100.00
21779;BME280;11050;52.222;20.916;2024-03-02T07:33:48;99872.81;;;9.05;100.00
21779;BME280;11050;52.222;20.916;2024-03-02T07:36:14;99869.56;;;9.08;100.00
21779;BME280;11050;52.222;20.916;2024-03-02T07:38:40;99868.41;;;9.04;100.00
21779;BME280;11050;52.222;20.916;2024-03-02T07:41:08;99871.22;;;9.09;100.00
21779;BME280;11050;52.222;20.916;2024-03-02T07:43:34;99867.91;;;9.07;100.00
21779;BME280;11050;52.222;20.916;2024-03-02T07:46:00;99869.31;;;9.09;100.00
21779;BME280;11050;52.222;20.916;2024-03-02T07:48:26;99882.00;;;9.15;100.00
21779;BME280;11050;52.222;20.916;2024-03-02T07:50:52;99891.63;;;9.18;100.00
21779;BME280;11050;52.222;20.916;2024-03-02T07:53:18;99889.47;;;9.20;100.00
21779;BME280;11050;52.222;20.916;2024-03-02T07:55:44;99885.31;;;9.17;100.00
21779;BME280;11050;52.222;20.916;2024-03-02T07:58:09;99888.09;;;9.22;100.00
21779;BME280;11050;52.222;20.916;2024-03-02T08:00:39;99896.03;;;9.19;100.00
21779;BME280;11050;52.222;20.916;2024-03-02T08:03:06;99908.13;;;9.23;100.00
21779;BME280;11050;52.222;20.916;2024-03-02T08:05:32;99907.97;;;9.29;100.00
21779;BME280;11050;52.222;20.916;2024-03-02T08:07:58;99918.66;;;9.31;100.00
21779;BME280;11050;52.222;20.916;2024-03-02T08:10:23;99901.44;;;9.35;100.00
21779;BME280;11050;52.222;20.916;2024-03-02T08:12:49;99914.91;;;9.37;100.00
21779;BME280;11050;52.222;20.916;2024-03-02T08:15:15;99907.22;;;9.39;100.00
21779;BME280;11050;52.222;20.916;2024-03-02T08:17:40;99909.22;;;9.43;100.00
21779;BME280;11050;52.222;20.916;2024-03-02T08:20:14;99897.22;;;9.49;100.00
21779;BME280;11050;52.222;20.916;2024-03-02T08:22:40;99900.59;;;9.56;100.00
21779;BME280;11050;52.222;20.916;2024-03-02T08:25:06;99900.63;;;9.62;100.00
21779;BME280;11050;52.222;20.916;2024-03-02T08:27:33;99903.47;;;9.67;100.00
21779;BME280;11050;52.222;20.916;2024-03-02T08:29:59;99902.44;;;9.73;100.00
21779;BME280;11050;52.222;20.916;2024-03-02T08:32:25;99902.47;;;9.78;100.00
21779;BME280;11050;52.222;20.916;2024-03-02T08:34:50;99906.06;;;9.78;100.00
21779;BME280;11050;52.222;20.916;2024-03-02T08:37:16;99894.56;;;9.81;100.00
21779;BME280;11050;52.222;20.916;2024-03-02T08:39:42;99899.78;;;9.83;100.00
21779;BME280;11050;52.222;20.916;2024-03-02T08:42:08;99906.13;;;9.88;100.00
21779;BME280;11050;52.222;20.916;2024-03-02T08:44:33;99914.19;;;9.95;100.00
21779;BME280;11050;52.222;20.916;2024-03-02T08:46:59;99915.31;;;9.99;100.00
21779;BME280;11050;52.222;20.916;2024-03-02T08:49:25;99908.16;;;9.98;100.00
21779;BME280;11050;52.222;20.916;2024-03-02T08:51:51;99910.09;;;9.97;100.00
21779;BME280;11050;52.222;20.916;2024-03-02T08:54:23;99900.97;;;9.92;100.00
21779;BME280;11050;52.222;20.916;2024-03-02T08:56:49;99914.19;;;9.95;100.00
21779;BME280;11050;52.222;20.916;2024-03-02T08:59:16;99903.19;;;9.95;100.00
21779;BME280;11050;52.222;20.916;2024-03-02T09:01:42;99902.41;;;9.99;100.00
21779;BME280;11050;52.222;20.916;2024-03-02T09:04:08;99906.56;;;10.02;100.00
21779;BME280;11050;52.222;20.916;2024-03-02T09:06:34;99910.44;;;10.06;100.00
21779;BME280;11050;52.222;20.916;2024-03-02T09:09:00;99910.50;;;10.11;100.00
21779;BME280;11050;52.222;20.916;2024-03-02T09:11:26;99911.91;;;10.13;100.00
21779;BME280;11050;52.222;20.916;2024-03-02T09:13:52;99908.16;;;10.24;100.00
21779;BME280;11050;52.222;20.916;2024-03-02T09:16:18;99918.88;;;10.26;100.00
21779;BME280;11050;52.222;20.916;2024-03-02T09:18:45;99912.63;;;10.30;100.00
21779;BME280;11050;52.222;20.916;2024-03-02T09:21:10;99905.63;;;10.44;100.00
21779;BME280;11050;52.222;20.916;2024-03-02T09:23:36;99906.50;;;10.55;100.00
21779;BME280;11050;52.222;20.916;2024-03-02T09:26:02;99917.50;;;10.55;100.00
21779;BME280;11050;52.222;20.916;2024-03-02T09:28:28;99912.00;;;10.55;100.00
21779;BME280;11050;52.222;20.916;2024-03-02T09:30:54;99905.47;;;10.61;100.00
21779;BME280;11050;52.222;20.916;2024-03-02T09:33:20;99912.91;;;10.66;100.00
21779;BME280;11050;52.222;20.916;2024-03-02T09:35:46;99909.94;;;10.72;100.00
21779;BME280;11050;52.222;20.916;2024-03-02T09:38:12;99912.72;;;10.77;100.00
21779;BME280;11050;52.222;20.916;2024-03-02T09:40:37;99910.50;;;10.74;100.00
21779;BME280;11050;52.222;20.916;2024-03-02T09:43:03;99916.00;;;10.74;100.00
21779;BME280;11050;52.222;20.916;2024-03-02T09:45:30;99914.63;;;10.77;100.00
21779;BME280;11050;52.222;20.916;2024-03-02T09:47:56;99910.53;;;10.79;100.00
21779;BME280;11050;52.222;20.916;2024-03-02T09:50:22;99907.22;;;10.77;100.00
21779;BME280;11050;52.222;20.916;2024-03-02T09:52:52;99916.31;;;10.83;100.00
21779;BME280;11050;52.222;20.916;2024-03-02T09:55:20;99915.00;;;10.90;100.00
21779;BME280;11050;52.222;20.916;2024-03-02T09:57:46;99915.59;;;10.97;100.00
21779;BME280;11050;52.222;20.916;2024-03-02T10:00:14;99914.00;;;11.06;100.00
21779;BME280;11050;52.222;20.916;2024-03-02T10:02:41;99920.66;;;11.15;100.00
21779;BME280;11050;52.222;20.916;2024-03-02T10:05:11;99911.06;;;11.28;100.00
21779;BME280;11050;52.222;20.916;2024-03-02T10:07:38;99908.66;;;11.41;100.00
21779;BME280;11050;52.222;20.916;2024-03-02T10:10:15;99911.47;;;11.52;100.00
21779;BME280;11050;52.222;20.916;2024-03-02T10:12:41;99911.28;;;11.68;100.00
21779;BME280;11050;52.222;20.916;2024-03-02T10:15:07;99902.22;;;11.83;100.00
21779;BME280;11050;52.222;20.916;2024-03-02T10:17:34;99903.09;;;11.93;100.00
21779;BME280;11050;52.222;20.916;2024-03-02T10:20:27;99899.53;;;12.08;100.00
21779;BME280;11050;52.222;20.916;2024-03-02T10:23:15;99899.53;;;12.18;99.37
21779;BME280;11050;52.222;20.916;2024-03-02T10:25:43;99901.47;;;12.32;98.79
21779;BME280;11050;52.222;20.916;2024-03-02T10:28:09;99900.34;;;12.49;97.23
21779;BME280;11050;52.222;20.916;2024-03-02T10:30:35;99899.53;;;12.58;96.27
21779;BME280;11050;52.222;20.916;2024-03-02T10:33:02;99898.97;;;12.66;95.77
21779;BME280;11050;52.222;20.916;2024-03-02T10:35:28;99898.69;;;12.73;94.59
21779;BME280;11050;52.222;20.916;2024-03-02T10:37:59;99906.69;;;12.79;95.03
21779;BME280;11050;52.222;20.916;2024-03-02T10:40:26;99901.69;;;12.86;93.50
21779;BME280;11050;52.222;20.916;2024-03-02T10:42:52;99897.59;;;12.84;93.27
21779;BME280;11050;52.222;20.916;2024-03-02T10:45:20;99890.66;;;12.86;93.67
21779;BME280;11050;52.222;20.916;2024-03-02T10:47:50;99896.72;;;13.03;92.43
21779;BME280;11050;52.222;20.916;2024-03-02T10:50:17;99900.56;;;13.17;91.91
21779;BME280;11050;52.222;20.916;2024-03-02T10:52:42;99893.66;;;13.25;90.79
21779;BME280;11050;52.222;20.916;2024-03-02T10:55:09;99894.44;;;13.30;90.27
21779;BME280;11050;52.222;20.916;2024-03-02T10:57:54;99900.44;;;13.43;89.53
21779;BME280;11050;52.222;20.916;2024-03-02T11:00:25;99887.75;;;13.52;88.62
21779;BME280;11050;52.222;20.916;2024-03-02T11:03:06;99891.03;;;13.54;88.61
21779;BME280;11050;52.222;20.916;2024-03-02T11:05:40;99884.69;;;13.53;87.36
21779;BME280;11050;52.222;20.916;2024-03-02T11:08:14;99885.53;;;13.54;88.08
21779;BME280;11050;52.222;20.916;2024-03-02T11:10:54;99893.81;;;13.49;87.62
21779;BME280;11050;52.222;20.916;2024-03-02T11:13:31;99886.38;;;13.49;88.60
21779;BME280;11050;52.222;20.916;2024-03-02T11:16:08;99878.38;;;13.48;87.55
21779;BME280;11050;52.222;20.916;2024-03-02T11:18:36;99882.81;;;13.44;88.57
21779;BME280;11050;52.222;20.916;2024-03-02T11:21:03;99883.88;;;13.43;88.32
21779;BME280;11050;52.222;20.916;2024-03-02T11:23:34;99872.59;;;13.39;88.45
21779;BME280;11050;52.222;20.916;2024-03-02T11:26:20;99873.16;;;13.36;89.18
21779;BME280;11050;52.222;20.916;2024-03-02T11:28:46;99877.03;;;13.40;89.00
21779;BME280;11050;52.222;20.916;2024-03-02T11:31:12;99877.81;;;13.46;89.11
21779;BME280;11050;52.222;20.916;2024-03-02T11:33:38;99878.91;;;13.50;88.39
21779;BME280;11050;52.222;20.916;2024-03-02T11:36:06;99880.00;;;13.54;88.87
21779;BME280;11050;52.222;20.916;2024-03-02T11:38:34;99871.69;;;13.59;88.66
21779;BME280;11050;52.222;20.916;2024-03-02T11:41:02;99872.22;;;13.56;87.89
21779;BME280;11050;52.222;20.916;2024-03-02T11:43:31;99862.66;;;13.43;88.41
21779;BME280;11050;52.222;20.916;2024-03-02T11:46:00;99862.66;;;13.43;88.77
21779;BME280;11050;52.222;20.916;2024-03-02T11:48:26;99858.00;;;13.33;89.91
21779;BME280;11050;52.222;20.916;2024-03-02T11:50:52;99857.97;;;13.44;89.89
21779;BME280;11050;52.222;20.916;2024-03-02T11:53:20;99859.84;;;13.53;89.02
21779;BME280;11050;52.222;20.916;2024-03-02T11:55:47;99851.47;;;13.63;89.17
21779;BME280;11050;52.222;20.916;2024-03-02T11:58:16;99850.50;;;13.88;88.95
21779;BME280;11050;52.222;20.916;2024-03-02T12:00:46;99851.72;;;14.10;86.58
21779;BME280;11050;52.222;20.916;2024-03-02T12:03:13;99844.19;;;14.21;85.60
21779;BME280;11050;52.222;20.916;2024-03-02T12:05:42;99859.03;;;14.35;84.70
21779;BME280;11050;52.222;20.916;2024-03-02T12:08:08;99849.25;;;14.48;83.57
21779;BME280;11050;52.222;20.916;2024-03-02T12:10:35;99849.00;;;14.73;82.88
21779;BME280;11050;52.222;20.916;2024-03-02T12:13:05;99857.09;;;14.93;81.69
21779;BME280;11050;52.222;20.916;2024-03-02T12:15:38;99843.84;;;15.13;79.92
21779;BME280;11050;52.222;20.916;2024-03-02T12:18:05;99847.59;;;15.23;79.27
21779;BME280;11050;52.222;20.916;2024-03-02T12:20:33;99849.34;;;15.37;78.46
21779;BME280;11050;52.222;20.916;2024-03-02T12:23:01;99853.63;;;15.53;76.69
21779;BME280;11050;52.222;20.916;2024-03-02T12:25:29;99854.28;;;15.64;76.32
21779;BME280;11050;52.222;20.916;2024-03-02T12:27:59;99856.50;;;15.67;75.39
21779;BME280;11050;52.222;20.916;2024-03-02T12:30:29;99861.25;;;15.61;75.12
21779;BME280;11050;52.222;20.916;2024-03-02T12:32:55;99862.50;;;15.50;76.08
21779;BME280;11050;52.222;20.916;2024-03-02T12:35:21;99861.75;;;15.45;76.05
21779;BME280;11050;52.222;20.916;2024-03-02T12:37:53;99856.69;;;15.52;75.79
21779;BME280;11050;52.222;20.916;2024-03-02T12:40:21;99867.78;;;15.52;75.96
21779;BME280;11050;52.222;20.916;2024-03-02T12:42:49;99867.78;;;15.52;75.98
21779;BME280;11050;52.222;20.916;2024-03-02T12:45:16;99862.22;;;15.52;76.04
21779;BME280;11050;52.222;20.916;2024-03-02T12:47:42;99861.75;;;15.45;75.85
21779;BME280;11050;52.222;20.916;2024-03-02T12:50:09;99858.56;;;15.33;76.12
21779;BME280;11050;52.222;20.916;2024-03-02T12:52:35;99858.16;;;15.20;76.67